Time,TemperatureF,DewpointF,PressureIn,WindDirection,WindDirectionDegrees,WindSpeedMPH,WindSpeedGustMPH,Humidity,HourlyPrecipIn,Conditions,Clouds,dailyrainin,SolarRadiationWatts/m^2,SoftwareType,DateUTC
2013-10-27 00:24:00,44.0,33.0,-100.00,WSW,256,0.0,3.0,64,0.00,,,0.21,1.000000,,2013-10-27 04:24:00,
2013-10-27 00:34:00,44.0,33.0,-100.00,WSW,256,0.0,3.0,64,0.00,,,0.21,1.000000,,2013-10-27 04:34:00,
2013-10-27 00:44:00,44.0,33.0,-100.00,WSW,256,0.0,3.0,64,0.00,,,0.21,1.000000,,2013-10-27 04:44:00,
2013-10-27 00:54:00,44.0,33.0,-100.00,WSW,256,0.0,3.0,64,0.00,,,0.21,1.000000,,2013-10-27 04:54:00,
2013-10-27 01:23:00,45.0,32.0,-100.00,West,269,3.0,7.0,60,0.00,,,0.21,1.000000,,2013-10-27 05:23:00,
2013-10-27 01:34:00,45.0,32.0,-100.00,West,269,3.0,7.0,60,0.00,,,0.21,1.000000,,2013-10-27 05:34:00,
2013-10-27 01:43:00,45.0,32.0,-100.00,West,269,3.0,7.0,60,0.00,,,0.21,1.000000,,2013-10-27 05:43:00,
2013-10-27 01:52:00,45.0,32.0,-100.00,West,269,3.0,7.0,60,0.00,,,0.21,1.000000,,2013-10-27 05:52:00,
2013-10-27 02:22:00,46.0,32.0,-100.00,West,277,3.0,7.0,57,0.00,,,-99.99,1.000000,,2013-10-27 06:22:00,
2013-10-27 02:33:00,46.0,32.0,-100.00,West,277,3.0,7.0,57,0.00,,,-99.99,1.000000,,2013-10-27 06:33:00,
2013-10-27 02:42:00,46.0,32.0,-100.00,West,277,3.0,7.0,57,0.00,,,-99.99,1.000000,,2013-10-27 06:42:00,
2013-10-27 02:53:00,46.0,32.0,-100.00,West,277,3.0,7.0,57,0.00,,,-99.99,1.000000,,2013-10-27 06:53:00,
2013-10-27 03:22:00,45.0,32.0,-100.00,West,267,3.0,10.0,60,0.00,,,0.21,1.000000,,2013-10-27 07:22:00,
2013-10-27 03:32:00,45.0,32.0,-100.00,West,267,3.0,10.0,60,0.00,,,0.21,1.000000,,2013-10-27 07:32:00,
2013-10-27 03:42:00,45.0,32.0,-100.00,West,267,3.0,10.0,60,0.00,,,0.21,1.000000,,2013-10-27 07:42:00,
2013-10-27 03:52:00,45.0,32.0,-100.00,West,267,3.0,10.0,60,0.00,,,0.21,1.000000,,2013-10-27 07:52:00,
2013-10-27 04:22:00,41.0,32.0,-100.00,West,277,2.0,8.0,71,0.00,,,0.21,1.000000,,2013-10-27 08:22:00,
2013-10-27 04:32:00,41.0,32.0,-100.00,West,277,2.0,8.0,71,0.00,,,0.21,1.000000,,2013-10-27 08:32:00,
2013-10-27 04:42:00,41.0,32.0,-100.00,West,277,2.0,8.0,71,0.00,,,0.21,1.000000,,2013-10-27 08:42:00,
2013-10-27 04:52:00,41.0,32.0,-100.00,West,277,2.0,8.0,71,0.00,,,0.21,1.000000,,2013-10-27 08:52:00,
2013-10-27 05:22:00,41.0,33.0,-100.00,WSW,245,3.0,7.0,74,0.00,,,0.21,1.000000,,2013-10-27 09:22:00,
2013-10-27 05:33:00,41.0,33.0,-100.00,WSW,245,3.0,7.0,74,0.00,,,0.21,1.000000,,2013-10-27 09:33:00,
2013-10-27 05:43:00,41.0,33.0,-100.00,WSW,245,3.0,7.0,74,0.00,,,0.21,1.000000,,2013-10-27 09:43:00,
2013-10-27 05:54:00,41.0,33.0,-100.00,WSW,245,3.0,7.0,74,0.00,,,0.21,1.000000,,2013-10-27 09:54:00,
2013-10-27 06:23:00,42.0,34.0,-100.00,West,273,4.0,9.0,74,0.00,,,0.21,1.000000,,2013-10-27 10:23:00,
2013-10-27 06:33:00,42.0,34.0,-100.00,West,273,4.0,9.0,74,0.00,,,0.21,1.000000,,2013-10-27 10:33:00,
2013-10-27 06:42:00,42.0,34.0,-100.00,West,273,4.0,9.0,74,0.00,,,0.21,1.000000,,2013-10-27 10:42:00,
2013-10-27 06:53:00,42.0,34.0,-100.00,West,273,4.0,9.0,74,0.00,,,0.21,1.000000,,2013-10-27 10:53:00,
2013-10-27 07:22:00,41.0,34.0,-100.00,WSW,254,3.0,9.0,77,0.00,,,0.21,1.000000,,2013-10-27 11:22:00,
2013-10-27 07:33:00,41.0,34.0,-100.00,WSW,254,3.0,9.0,77,0.00,,,0.21,1.000000,,2013-10-27 11:33:00,
2013-10-27 07:42:00,41.0,34.0,-100.00,WSW,254,3.0,9.0,77,0.00,,,0.21,1.000000,,2013-10-27 11:42:00,
2013-10-27 07:52:00,41.0,34.0,-100.00,WSW,254,3.0,9.0,77,0.00,,,0.21,1.000000,,2013-10-27 11:52:00,
2013-10-27 08:22:00,38.0,35.0,-100.00,West,269,2.0,7.0,88,0.00,,,0.21,4.000000,,2013-10-27 12:22:00,
2013-10-27 08:32:00,38.0,35.0,-100.00,West,269,2.0,7.0,88,0.00,,,0.21,4.000000,,2013-10-27 12:32:00,
2013-10-27 08:42:00,38.0,35.0,-100.00,West,269,2.0,7.0,88,0.00,,,0.21,4.000000,,2013-10-27 12:42:00,
2013-10-27 08:52:00,38.0,35.0,-100.00,West,269,2.0,7.0,88,0.00,,,0.21,4.000000,,2013-10-27 12:52:00,
2013-10-27 09:22:00,42.0,36.0,-100.00,WSW,253,3.0,6.0,78,0.00,,,0.19,55.000000,,2013-10-27 13:22:00,
2013-10-27 09:32:00,42.0,36.0,-100.00,WSW,253,3.0,6.0,78,0.00,,,0.19,55.000000,,2013-10-27 13:32:00,
2013-10-27 09:42:00,42.0,36.0,-100.00,WSW,253,3.0,6.0,78,0.00,,,0.19,55.000000,,2013-10-27 13:42:00,
2013-10-27 09:52:00,42.0,36.0,-100.00,WSW,253,3.0,6.0,78,0.00,,,0.19,55.000000,,2013-10-27 13:52:00,
2013-10-27 10:22:00,45.0,35.0,-100.00,WSW,247,7.0,17.0,69,0.00,,,0.06,251.000000,,2013-10-27 14:22:00,
2013-10-27 10:32:00,45.0,35.0,-100.00,WSW,247,7.0,17.0,69,0.00,,,0.06,251.000000,,2013-10-27 14:32:00,
2013-10-27 10:42:00,45.0,35.0,-100.00,WSW,247,7.0,17.0,69,0.00,,,0.06,251.000000,,2013-10-27 14:42:00,
2013-10-27 10:52:00,45.0,35.0,-100.00,WSW,247,7.0,17.0,69,0.00,,,0.06,251.000000,,2013-10-27 14:52:00,
2013-10-27 11:22:00,46.0,35.0,-100.00,West,266,4.0,15.0,65,0.00,,,-99.99,306.000000,,2013-10-27 15:22:00,
2013-10-27 11:34:00,46.0,35.0,-100.00,West,266,4.0,15.0,65,0.00,,,-99.99,306.000000,,2013-10-27 15:34:00,
2013-10-27 11:44:00,46.0,35.0,-100.00,West,266,4.0,15.0,65,0.00,,,-99.99,306.000000,,2013-10-27 15:44:00,
2013-10-27 11:54:00,46.0,35.0,-100.00,West,266,4.0,15.0,65,0.00,,,-99.99,306.000000,,2013-10-27 15:54:00,
2013-10-27 12:24:00,48.0,34.0,-100.00,WSW,250,5.0,13.0,58,0.00,,,0.01,419.000000,,2013-10-27 16:24:00,
2013-10-27 12:34:00,48.0,34.0,-100.00,WSW,250,5.0,13.0,58,0.00,,,0.01,419.000000,,2013-10-27 16:34:00,
2013-10-27 12:43:00,48.0,34.0,-100.00,WSW,250,5.0,13.0,58,0.00,,,0.01,419.000000,,2013-10-27 16:43:00,
2013-10-27 12:53:00,48.0,34.0,-100.00,WSW,250,5.0,13.0,58,0.00,,,0.01,419.000000,,2013-10-27 16:53:00,
2013-10-27 13:22:00,50.0,34.0,-100.00,SW,233,7.0,15.0,53,0.00,,,0.01,390.000000,,2013-10-27 17:22:00,
2013-10-27 13:34:00,50.0,34.0,-100.00,SW,233,7.0,15.0,53,0.00,,,0.01,390.000000,,2013-10-27 17:34:00,
2013-10-27 13:43:00,50.0,34.0,-100.00,SW,233,7.0,15.0,53,0.00,,,0.01,390.000000,,2013-10-27 17:43:00,
2013-10-27 13:53:00,50.0,34.0,-100.00,SW,233,7.0,15.0,53,0.00,,,0.01,390.000000,,2013-10-27 17:53:00,
2013-10-27 14:22:00,48.0,33.0,-100.00,West,264,5.0,16.0,56,0.00,,,0.01,311.000000,,2013-10-27 18:22:00,
2013-10-27 14:32:00,48.0,33.0,-100.00,West,264,5.0,16.0,56,0.00,,,0.01,311.000000,,2013-10-27 18:32:00,
2013-10-27 14:43:00,48.0,33.0,-100.00,West,264,5.0,16.0,56,0.00,,,0.01,311.000000,,2013-10-27 18:43:00,
2013-10-27 14:52:00,48.0,33.0,-100.00,West,264,5.0,16.0,56,0.00,,,0.01,311.000000,,2013-10-27 18:52:00,
2013-10-27 15:22:00,49.0,31.0,-100.00,West,271,5.0,13.0,50,0.00,,,0.01,183.000000,,2013-10-27 19:22:00,
2013-10-27 15:32:00,49.0,31.0,-100.00,West,271,5.0,13.0,50,0.00,,,0.01,183.000000,,2013-10-27 19:32:00,
2013-10-27 15:42:00,49.0,31.0,-100.00,West,271,5.0,13.0,50,0.00,,,0.01,183.000000,,2013-10-27 19:42:00,
2013-10-27 15:52:00,49.0,31.0,-100.00,West,271,5.0,13.0,50,0.00,,,0.01,183.000000,,2013-10-27 19:52:00,
2013-10-27 16:22:00,49.0,30.0,-100.00,WSW,253,6.0,17.0,47,0.00,,,0.01,212.000000,,2013-10-27 20:22:00,
2013-10-27 16:32:00,49.0,30.0,-100.00,WSW,253,6.0,17.0,47,0.00,,,0.01,212.000000,,2013-10-27 20:32:00,
2013-10-27 16:43:00,49.0,30.0,-100.00,WSW,253,6.0,17.0,47,0.00,,,0.01,212.000000,,2013-10-27 20:43:00,
2013-10-27 16:52:00,49.0,30.0,-100.00,WSW,253,6.0,17.0,47,0.00,,,0.01,212.000000,,2013-10-27 20:52:00,
2013-10-27 17:22:00,48.0,31.0,-100.00,West,267,5.0,17.0,51,0.00,,,0.01,148.000000,,2013-10-27 21:22:00,
2013-10-27 17:34:00,48.0,31.0,-100.00,West,267,5.0,17.0,51,0.00,,,0.01,148.000000,,2013-10-27 21:34:00,
2013-10-27 17:43:00,48.0,31.0,-100.00,West,267,5.0,17.0,51,0.00,,,0.01,148.000000,,2013-10-27 21:43:00,
2013-10-27 17:54:00,48.0,31.0,-100.00,West,267,5.0,17.0,51,0.00,,,0.01,148.000000,,2013-10-27 21:54:00,
2013-10-27 18:24:00,46.0,30.0,-100.00,WSW,258,5.0,13.0,54,0.00,,,0.01,30.000000,,2013-10-27 22:24:00,
2013-10-27 18:33:00,46.0,30.0,-100.00,WSW,258,5.0,13.0,54,0.00,,,0.01,30.000000,,2013-10-27 22:33:00,
2013-10-27 18:43:00,46.0,30.0,-100.00,WSW,258,5.0,13.0,54,0.00,,,0.01,30.000000,,2013-10-27 22:43:00,
2013-10-27 18:54:00,46.0,30.0,-100.00,WSW,258,5.0,13.0,54,0.00,,,0.01,30.000000,,2013-10-27 22:54:00,
2013-10-27 19:22:00,43.0,32.0,-100.00,West,273,1.0,7.0,64,0.00,,,0.01,3.000000,,2013-10-27 23:22:00,
2013-10-27 19:33:00,43.0,32.0,-100.00,West,273,1.0,7.0,64,0.00,,,0.01,3.000000,,2013-10-27 23:33:00,
2013-10-27 19:42:00,43.0,32.0,-100.00,West,273,1.0,7.0,64,0.00,,,0.01,3.000000,,2013-10-27 23:42:00,
2013-10-27 19:52:00,43.0,32.0,-100.00,West,273,1.0,7.0,64,0.00,,,0.01,3.000000,,2013-10-27 23:52:00,
2013-10-27 20:22:00,39.0,32.0,-100.00,West,261,0.0,1.0,75,0.00,,,0.01,1.000000,,2013-10-28 00:22:00,
2013-10-27 20:32:00,39.0,32.0,-100.00,West,261,0.0,1.0,75,0.00,,,0.01,1.000000,,2013-10-28 00:32:00,
2013-10-27 20:43:00,39.0,32.0,-100.00,West,261,0.0,1.0,75,0.00,,,0.01,1.000000,,2013-10-28 00:43:00,
2013-10-27 20:52:00,39.0,32.0,-100.00,West,261,0.0,1.0,75,0.00,,,0.01,1.000000,,2013-10-28 00:52:00,
2013-10-27 22:22:00,35.0,32.0,-100.00,SW,234,0.0,0.0,90,0.00,,,0.00,1.000000,,2013-10-28 02:22:00,
2013-10-27 22:32:00,35.0,32.0,-100.00,SW,234,0.0,0.0,90,0.00,,,0.00,1.000000,,2013-10-28 02:32:00,
2013-10-27 22:42:00,35.0,32.0,-100.00,SW,234,0.0,0.0,90,0.00,,,0.00,1.000000,,2013-10-28 02:42:00,
2013-10-27 22:53:00,35.0,32.0,-100.00,SW,234,0.0,0.0,90,0.00,,,0.00,1.000000,,2013-10-28 02:53:00,
2013-10-27 23:22:00,34.0,34.0,-100.00,WNW,282,0.0,0.0,98,0.00,,,0.00,1.000000,,2013-10-28 03:22:00,
2013-10-27 23:34:00,34.0,34.0,-100.00,WNW,282,0.0,0.0,98,0.00,,,0.00,1.000000,,2013-10-28 03:34:00,
2013-10-27 23:44:00,34.0,34.0,-100.00,WNW,282,0.0,0.0,98,0.00,,,0.00,1.000000,,2013-10-28 03:44:00,
2013-10-27 23:54:00,34.0,34.0,-100.00,WNW,282,0.0,0.0,98,0.00,,,0.00,1.000000,,2013-10-28 03:54:00,